Time;durP1;ratioP1;P1;durP2;ratioP2;P2;SDS_P1;SDS_P2;PMS_P1;PMS_P2;Temp;Humidity;BMP_temperature;BMP_pressure;BME280_temperature;BME280_humidity;BME280_pressure;Samples;Min_cycle;Max_cycle;Signal;HPM_P1;HPM_P2
2022/12/16 00:01:55;;;;;;;46.43;26.80;;;-7.30;99.90;;;;;;5053435;28;20723;-65
2022/12/16 00:04:21;;;;;;;45.30;25.97;;;-7.30;99.90;;;;;;5053301;28;20195;-65
2022/12/16 00:06:46;;;;;;;42.97;25.67;;;-7.20;99.90;;;;;;5053346;28;20572;-66
2022/12/16 00:09:12;;;;;;;42.77;28.27;;;-7.20;99.90;;;;;;5053671;28;20647;-65
2022/12/16 00:11:38;;;;;;;42.67;28.37;;;-7.30;99.90;;;;;;5053482;28;20206;-65
2022/12/16 00:14:04;;;;;;;50.10;29.53;;;-7.40;99.90;;;;;;5053041;28;20194;-65
2022/12/16 00:16:30;;;;;;;45.93;26.13;;;-7.50;99.90;;;;;;5053330;28;20257;-64
2022/12/16 00:18:55;;;;;;;38.47;25.83;;;-7.60;99.90;;;;;;5053492;28;20198;-65
2022/12/16 00:21:27;;;;;;;36.80;24.40;;;-7.60;99.90;;;;;;5053361;28;20257;-65
2022/12/16 00:23:53;;;;;;;40.53;25.10;;;-7.70;99.90;;;;;;5035280;28;20200;-64
2022/12/16 00:26:19;;;;;;;39.73;24.97;;;-7.70;99.90;;;;;;5053365;28;20174;-64
2022/12/16 00:28:44;;;;;;;36.60;25.40;;;-7.60;99.90;;;;;;5053586;28;20224;-65
2022/12/16 00:31:10;;;;;;;45.73;27.93;;;-7.60;99.90;;;;;;5053207;28;20575;-65
2022/12/16 00:33:36;;;;;;;37.00;26.03;;;-7.50;99.90;;;;;;5053096;28;20212;-64
2022/12/16 00:36:02;;;;;;;37.83;26.07;;;-7.40;99.90;;;;;;5035760;28;20244;-65
2022/12/16 00:38:28;;;;;;;35.97;26.60;;;-7.40;99.90;;;;;;5053145;28;20201;-65
2022/12/16 00:40:54;;;;;;;38.53;24.80;;;-7.40;99.90;;;;;;5053247;28;20178;-65
2022/12/16 00:43:19;;;;;;;40.00;25.17;;;-7.40;99.90;;;;;;5053002;28;20671;-65
2022/12/16 00:45:46;;;;;;;40.77;23.90;;;-7.40;99.90;;;;;;5053035;28;20206;-64
2022/12/16 00:48:12;;;;;;;34.03;23.13;;;-7.50;99.90;;;;;;5035219;28;20174;-65
2022/12/16 00:50:38;;;;;;;36.73;24.90;;;-7.60;99.90;;;;;;5053037;28;20178;-65
2022/12/16 00:53:04;;;;;;;35.90;24.23;;;-7.60;99.90;;;;;;5052790;28;20353;-65
2022/12/16 00:55:31;;;;;;;32.70;23.87;;;-7.60;99.90;;;;;;5035333;28;20586;-65
2022/12/16 00:57:57;;;;;;;36.13;25.33;;;-7.60;99.90;;;;;;5052921;28;20584;-65
2022/12/16 01:00:23;;;;;;;34.97;24.90;;;-7.70;99.90;;;;;;5056621;28;20213;-64
2022/12/16 01:02:49;;;;;;;36.83;24.57;;;-7.80;99.90;;;;;;5056994;28;20689;-64
2022/12/16 01:05:19;;;;;;;32.83;23.77;;;-7.70;99.90;;;;;;5056746;28;20189;-65
2022/12/16 01:07:45;;;;;;;36.33;24.10;;;-7.70;99.90;;;;;;5056889;28;20232;-64
2022/12/16 01:10:11;;;;;;;36.90;24.83;;;-7.70;99.90;;;;;;5056504;28;20657;-64
2022/12/16 01:12:37;;;;;;;34.27;24.70;;;-7.80;99.90;;;;;;5056313;28;20198;-64
2022/12/16 01:15:05;;;;;;;40.07;25.03;;;-7.90;99.90;;;;;;5056421;28;20189;-65
2022/12/16 01:17:31;;;;;;;34.87;24.60;;;-8.00;99.90;;;;;;5056277;28;20195;-64
2022/12/16 01:19:57;;;;;;;36.27;22.90;;;-7.90;99.90;;;;;;5038314;28;20189;-66
2022/12/16 01:22:23;;;;;;;38.73;24.77;;;-8.00;99.90;;;;;;5056830;28;20285;-65
2022/12/16 01:24:49;;;;;;;42.80;24.67;;;-8.10;99.90;;;;;;5056299;28;20192;-65
2022/12/16 01:27:15;;;;;;;39.27;25.67;;;-8.10;99.90;;;;;;5056253;28;20225;-64
2022/12/16 01:29:42;;;;;;;34.30;21.93;;;-8.20;99.90;;;;;;5056267;28;20224;-64
2022/12/16 01:32:12;;;;;;;33.13;22.63;;;-8.10;99.90;;;;;;5056123;28;20233;-65
2022/12/16 01:34:38;;;;;;;33.47;23.70;;;-8.10;99.90;;;;;;5056482;28;20159;-64
2022/12/16 01:37:03;;;;;;;39.83;24.00;;;-8.00;99.90;;;;;;5056198;28;20173;-64
2022/12/16 01:39:29;;;;;;;28.27;22.30;;;-7.90;99.90;;;;;;5056007;28;20185;-64
2022/12/16 01:41:55;;;;;;;35.47;24.73;;;-7.90;99.90;;;;;;5056494;28;20183;-65
2022/12/16 01:44:23;;;;;;;31.87;24.43;;;-8.00;99.90;;;;;;5055847;28;20198;-65
2022/12/16 01:46:52;;;;;;;32.43;22.27;;;-8.00;99.90;;;;;;5037897;28;20182;-64
2022/12/16 01:49:23;;;;;;;31.27;23.27;;;-8.10;99.90;;;;;;5055974;28;20186;-65
2022/12/16 01:51:49;;;;;;;35.77;24.63;;;-8.20;99.90;;;;;;5055931;28;20276;-65
2022/12/16 01:54:28;;;;;;;27.67;22.27;;;-8.30;99.90;;;;;;5055567;28;20189;-65
2022/12/16 01:57:01;;;;;;;36.30;23.13;;;-8.20;99.90;;;;;;5055938;28;20159;-65
2022/12/16 01:59:29;;;;;;;31.50;23.90;;;-8.20;99.90;;;;;;5055785;28;20155;-65
2022/12/16 02:01:55;;;;;;;35.90;24.40;;;-8.10;99.90;;;;;;5055572;28;20266;-64
2022/12/16 02:04:21;;;;;;;32.00;24.33;;;-8.10;99.90;;;;;;5055418;28;20194;-65
2022/12/16 02:06:47;;;;;;;25.60;20.83;;;-8.20;99.90;;;;;;5056268;28;20669;-64
2022/12/16 02:09:14;;;;;;;30.77;22.33;;;-8.20;99.90;;;;;;5055457;28;20716;-65
2022/12/16 02:12:12;;;;;;;25.33;22.47;;;-8.30;99.90;;;;;;5037311;28;20237;-65
2022/12/16 02:15:17;;;;;;;28.97;21.87;;;-8.30;99.90;;;;;;5055230;28;20571;-65
2022/12/16 02:18:01;;;;;;;34.67;22.07;;;-8.30;99.90;;;;;;5051041;28;20187;-65
2022/12/16 02:20:49;;;;;;;26.57;21.33;;;-8.40;99.90;;;;;;5056582;28;20317;-65
2022/12/16 02:23:52;;;;;;;34.13;23.57;;;-8.40;99.90;;;;;;5055902;28;20201;-64
2022/12/16 02:26:48;;;;;;;26.40;22.57;;;-8.40;99.90;;;;;;5055295;28;20174;-64
2022/12/16 02:29:19;;;;;;;36.50;21.67;;;-8.30;99.90;;;;;;5055041;28;20162;-65
2022/12/16 02:32:15;;;;;;;28.83;23.53;;;-8.40;99.90;;;;;;5055172;28;20256;-65
2022/12/16 02:34:54;;;;;;;30.07;22.60;;;-8.30;99.90;;;;;;5037217;28;20182;-64
2022/12/16 02:37:27;;;;;;;26.27;22.30;;;-8.20;99.90;;;;;;5055167;28;20159;-64
2022/12/16 02:39:59;;;;;;;24.23;21.20;;;-8.20;99.90;;;;;;5055052;28;20159;-64
2022/12/16 02:42:39;;;;;;;37.07;23.97;;;-8.10;99.90;;;;;;5055261;28;20211;-64
2022/12/16 02:45:19;;;;;;;32.40;23.87;;;-8.10;99.90;;;;;;5054979;28;20237;-64
2022/12/16 02:47:45;;;;;;;33.57;23.47;;;-8.00;99.90;;;;;;5055696;28;20159;-64
2022/12/16 02:50:40;;;;;;;35.87;24.73;;;-8.10;99.90;;;;;;5055927;28;20182;-64
2022/12/16 02:53:08;;;;;;;33.47;24.63;;;-8.10;99.90;;;;;;5056306;28;20256;-64
2022/12/16 02:56:05;;;;;;;36.27;26.37;;;-8.20;99.90;;;;;;5037257;28;20179;-64
2022/12/16 02:58:44;;;;;;;32.77;24.73;;;-8.20;99.90;;;;;;5003550;28;20715;-64
2022/12/16 03:01:10;;;;;;;29.53;23.57;;;-8.30;99.90;;;;;;5054514;28;20159;-64
2022/12/16 03:04:05;;;;;;;40.63;23.30;;;-8.40;99.90;;;;;;5036726;28;20198;-64
2022/12/16 03:06:34;;;;;;;33.60;23.83;;;-8.50;99.90;;;;;;5054723;28;20174;-64
2022/12/16 03:09:05;;;;;;;27.57;22.70;;;-8.60;99.90;;;;;;5054519;28;20263;-64
2022/12/16 03:11:32;;;;;;;36.13;24.20;;;-8.60;99.90;;;;;;5036195;28;20666;-65
2022/12/16 03:14:00;;;;;;;35.50;23.67;;;-8.60;99.90;;;;;;5054180;28;20732;-65
2022/12/16 03:16:30;;;;;;;30.17;23.63;;;-8.50;99.90;;;;;;5054783;28;20166;-64
2022/12/16 03:19:05;;;;;;;27.77;21.80;;;-8.50;99.90;;;;;;5054547;28;20224;-65
2022/12/16 03:21:42;;;;;;;31.00;24.07;;;-8.40;99.90;;;;;;5053609;28;20265;-65
2022/12/16 03:24:12;;;;;;;33.83;23.30;;;-8.50;99.90;;;;;;5054604;28;20211;-65
2022/12/16 03:26:55;;;;;;;36.40;22.80;;;-8.60;99.90;;;;;;5054117;28;20194;-64
2022/12/16 03:29:26;;;;;;;37.20;24.10;;;-8.60;99.90;;;;;;5053888;28;20265;-65
2022/12/16 03:31:59;;;;;;;29.00;22.50;;;-8.50;99.90;;;;;;5054511;28;20585;-64
2022/12/16 03:34:58;;;;;;;39.03;25.43;;;-8.60;99.90;;;;;;5053948;28;20186;-65
2022/12/16 03:37:30;;;;;;;27.27;22.50;;;-8.70;99.90;;;;;;5054210;28;20166;-64
2022/12/16 03:40:00;;;;;;;37.67;24.33;;;-8.60;99.90;;;;;;5054049;28;20235;-65
2022/12/16 03:42:26;;;;;;;30.83;22.13;;;-8.60;99.90;;;;;;5053845;28;20206;-64
2022/12/16 03:44:52;;;;;;;35.00;22.77;;;-8.70;99.90;;;;;;5053532;28;20175;-65
2022/12/16 03:47:18;;;;;;;41.10;23.97;;;-8.70;99.90;;;;;;5035646;28;20202;-64
2022/12/16 03:49:44;;;;;;;32.63;23.87;;;-8.60;99.90;;;;;;5053805;28;20174;-65
2022/12/16 03:52:10;;;;;;;36.43;23.60;;;-8.60;99.90;;;;;;5053543;28;20248;-64
2022/12/16 03:54:36;;;;;;;36.00;25.33;;;-8.60;99.90;;;;;;5053832;28;20170;-64
2022/12/16 03:57:02;;;;;;;32.00;24.10;;;-8.70;99.90;;;;;;5035783;28;20171;-64
2022/12/16 03:59:28;;;;;;;37.90;25.17;;;-8.80;99.90;;;;;;5053555;28;20201;-64
2022/12/16 04:01:53;;;;;;;30.27;22.53;;;-8.70;99.90;;;;;;5053481;28;20174;-64
2022/12/16 04:04:20;;;;;;;28.37;22.53;;;-8.70;99.90;;;;;;5053239;28;20194;-64
2022/12/16 04:07:18;;;;;;;25.77;22.17;;;-8.70;99.90;;;;;;5035519;28;20228;-65
2022/12/16 04:09:31;;;;;;;31.67;24.17;;;-8.80;99.90;;;;;;5053378;28;20183;-64
2022/12/16 04:25:47;;;;;;;31.50;22.80;;;-8.70;99.90;;;;;;5053580;28;20258;-64
2022/12/16 04:28:12;;;;;;;26.23;22.97;;;-8.70;99.90;;;;;;5053457;28;20201;-64
2022/12/16 04:30:38;;;;;;;33.53;22.47;;;-8.70;99.90;;;;;;5052927;28;20178;-64
